createdAt,value
2022-10-29T00:01:09.116Z,15.18
2022-10-29T00:03:36.849Z,18.40
2022-10-29T00:06:08.357Z,14.25
2022-10-29T00:08:35.956Z,23.85
2022-10-29T00:11:13.198Z,23.77
2022-10-29T00:13:40.346Z,18.58
2022-10-29T00:16:08.502Z,13.05
2022-10-29T00:18:35.700Z,12.52
2022-10-29T00:21:05.899Z,13.80
2022-10-29T00:23:33.084Z,14.75
2022-10-29T00:26:00.409Z,19.60
2022-10-29T00:28:27.605Z,19.27
2022-10-29T00:30:54.739Z,16.35
2022-10-29T00:33:21.896Z,19.60
2022-10-29T00:35:55.641Z,17.45
2022-10-29T00:38:22.899Z,11.13
2022-10-29T00:40:50.045Z,11.90
2022-10-29T00:43:17.631Z,16.05
2022-10-29T00:45:55.181Z,14.77
2022-10-29T00:48:22.317Z,16.88
2022-10-29T00:50:49.493Z,13.25
2022-10-29T00:53:17.541Z,13.75
2022-10-29T00:55:44.723Z,13.88
2022-10-29T00:58:12.084Z,15.50
2022-10-29T01:00:39.331Z,18.45
2022-10-29T01:03:06.944Z,16.20
2022-10-29T01:05:34.395Z,17.80
2022-10-29T01:08:01.723Z,17.23
2022-10-29T01:10:32.946Z,15.70
2022-10-29T01:13:00.098Z,16.42
2022-10-29T01:15:29.933Z,15.48
2022-10-29T01:18:00.721Z,12.68
2022-10-29T01:20:46.549Z,12.18
2022-10-29T01:23:25.837Z,12.40
2022-10-29T01:25:58.886Z,12.38
2022-10-29T01:28:46.253Z,10.05
2022-10-29T01:31:32.230Z,11.60
2022-10-29T01:34:18.223Z,14.55
2022-10-29T01:37:03.723Z,11.73
2022-10-29T01:39:33.712Z,12.63
2022-10-29T01:42:00.824Z,10.07
2022-10-29T01:44:27.976Z,8.95
2022-10-29T01:46:56.437Z,10.15
2022-10-29T01:49:25.525Z,9.02
2022-10-29T01:51:52.687Z,11.07
2022-10-29T01:54:19.812Z,10.68
2022-10-29T01:56:54.286Z,11.27
2022-10-29T01:59:35.352Z,8.70
2022-10-29T02:02:03.509Z,10.27
2022-10-29T02:04:33.530Z,17.40
2022-10-29T02:07:03.202Z,15.63
2022-10-29T02:09:30.327Z,27.50
2022-10-29T02:12:03.326Z,56.28
2022-10-29T02:14:37.753Z,51.28
2022-10-29T02:17:04.905Z,43.83
2022-10-29T02:19:32.614Z,43.90
2022-10-29T02:21:59.801Z,38.88
2022-10-29T02:24:26.964Z,44.72
2022-10-29T02:26:54.193Z,50.33
2022-10-29T02:29:21.388Z,50.00
2022-10-29T02:31:48.559Z,40.85
2022-10-29T02:34:15.706Z,37.00
2022-10-29T02:36:42.846Z,19.35
2022-10-29T02:39:09.990Z,18.00
2022-10-29T02:41:37.121Z,17.15
2022-10-29T02:44:04.292Z,13.95
2022-10-29T02:46:31.541Z,9.40
2022-10-29T02:48:58.670Z,13.50
2022-10-29T02:51:25.788Z,18.23
2022-10-29T02:53:52.928Z,17.60
2022-10-29T02:56:20.065Z,29.10
2022-10-29T02:58:47.181Z,18.92
2022-10-29T03:01:14.615Z,13.70
2022-10-29T03:03:41.800Z,12.43
2022-10-29T03:06:15.505Z,12.73
2022-10-29T03:08:42.681Z,12.20
2022-10-29T03:11:09.852Z,12.10
2022-10-29T03:16:05.157Z,14.60
2022-10-29T03:18:32.307Z,9.52
2022-10-29T03:20:59.456Z,19.33
2022-10-29T03:23:26.604Z,19.65
2022-10-29T03:25:56.032Z,23.27
2022-10-29T03:28:23.674Z,16.73
2022-10-29T03:30:50.799Z,18.75
2022-10-29T03:33:17.912Z,24.63
2022-10-29T03:35:45.085Z,21.25
2022-10-29T03:38:12.265Z,27.33
2022-10-29T03:40:39.456Z,20.27
2022-10-29T03:43:06.617Z,15.00
2022-10-29T03:45:33.738Z,14.00
2022-10-29T03:48:00.860Z,14.00
2022-10-29T03:50:28.014Z,15.13
2022-10-29T03:52:55.133Z,19.13
2022-10-29T03:55:22.250Z,39.42
2022-10-29T03:57:49.457Z,29.20
2022-10-29T04:00:16.843Z,28.52
2022-10-29T04:02:44.026Z,22.83
2022-10-29T04:05:11.234Z,23.05
2022-10-29T04:07:38.397Z,14.90
2022-10-29T04:10:05.750Z,16.60
2022-10-29T04:12:32.903Z,15.13
2022-10-29T04:15:00.031Z,17.98
2022-10-29T04:17:27.184Z,20.50
2022-10-29T04:19:54.320Z,20.60
2022-10-29T04:30:43.304Z,13.73
2022-10-29T04:33:10.428Z,15.45
2022-10-29T04:35:37.554Z,22.15
2022-10-29T04:38:08.650Z,18.90
2022-10-29T04:40:35.773Z,22.25
2022-10-29T04:43:02.907Z,21.48
2022-10-29T04:45:30.240Z,23.02
2022-10-29T04:48:01.154Z,21.30
2022-10-29T04:50:28.677Z,21.67
2022-10-29T04:53:02.197Z,24.13
2022-10-29T04:55:29.388Z,45.53
2022-10-29T04:57:56.988Z,26.42
2022-10-29T05:00:24.423Z,39.20
2022-10-29T05:02:51.863Z,29.17
2022-10-29T05:05:19.490Z,31.52
2022-10-29T05:07:46.641Z,44.42
2022-10-29T05:10:13.997Z,50.08
2022-10-29T05:12:41.116Z,51.83
2022-10-29T05:15:08.400Z,44.75
2022-10-29T05:17:38.800Z,50.67
2022-10-29T05:20:06.228Z,62.85
2022-10-29T05:22:33.413Z,78.43
2022-10-29T05:25:00.529Z,80.55
2022-10-29T05:27:27.686Z,87.50
2022-10-29T05:29:54.856Z,87.53
2022-10-29T05:32:21.980Z,87.38
2022-10-29T05:34:49.111Z,84.72
2022-10-29T05:37:16.296Z,76.35
2022-10-29T05:39:43.426Z,80.25
2022-10-29T05:42:10.560Z,66.95
2022-10-29T05:44:37.754Z,38.15
2022-10-29T05:47:06.674Z,55.55
2022-10-29T05:49:33.792Z,42.30
2022-10-29T05:52:00.955Z,37.35
2022-10-29T05:54:28.106Z,63.38
2022-10-29T05:56:55.245Z,54.15
2022-10-29T05:59:22.413Z,43.70
2022-10-29T06:01:49.678Z,50.90
2022-10-29T06:04:16.856Z,46.28
2022-10-29T06:06:44.063Z,39.47
2022-10-29T06:09:11.235Z,48.78
2022-10-29T06:11:38.371Z,71.10
2022-10-29T06:14:05.536Z,65.93
2022-10-29T06:16:32.656Z,48.80
2022-10-29T06:18:59.781Z,40.88
2022-10-29T06:21:26.941Z,35.60
2022-10-29T06:23:54.825Z,41.53
2022-10-29T06:26:22.703Z,39.40
2022-10-29T06:28:49.857Z,37.30
2022-10-29T06:31:16.999Z,34.63
2022-10-29T06:33:44.123Z,36.60
2022-10-29T06:36:11.282Z,58.83
2022-10-29T06:38:38.435Z,64.05
2022-10-29T06:41:05.682Z,51.35
2022-10-29T06:43:32.967Z,50.85
2022-10-29T06:46:00.137Z,58.15
2022-10-29T06:48:27.262Z,57.22
2022-10-29T06:50:54.495Z,53.60
2022-10-29T06:53:21.648Z,50.75
2022-10-29T06:55:49.208Z,53.22
2022-10-29T06:58:16.992Z,52.97
2022-10-29T07:00:44.273Z,49.10
2022-10-29T07:03:18.443Z,100.93
2022-10-29T07:05:45.697Z,86.60
2022-10-29T07:08:13.086Z,18.50
2022-10-29T07:10:40.331Z,7.85
2022-10-29T07:13:07.505Z,4.60
2022-10-29T07:15:34.644Z,4.55
2022-10-29T07:18:05.343Z,4.55
2022-10-29T07:20:33.310Z,15.27
2022-10-29T07:23:01.437Z,7.28
2022-10-29T07:25:29.154Z,12.65
2022-10-29T07:27:56.743Z,10.30
2022-10-29T07:30:24.160Z,13.98
2022-10-29T07:32:51.394Z,6.93
2022-10-29T07:35:18.521Z,9.82
2022-10-29T07:37:45.643Z,9.13
2022-10-29T07:40:13.138Z,7.95
2022-10-29T07:42:40.292Z,7.50
2022-10-29T07:45:07.605Z,8.93
2022-10-29T07:47:34.781Z,4.20
2022-10-29T07:50:01.978Z,5.03
2022-10-29T07:52:29.125Z,4.97
2022-10-29T07:54:56.317Z,3.85
2022-10-29T07:57:23.519Z,2.78
2022-10-29T07:59:51.976Z,3.50
2022-10-29T08:02:19.196Z,5.10
2022-10-29T08:04:46.362Z,6.15
2022-10-29T08:07:13.488Z,6.57
2022-10-29T08:09:40.795Z,4.05
2022-10-29T08:12:11.265Z,4.15
2022-10-29T08:14:38.380Z,7.45
2022-10-29T08:17:05.508Z,8.20
2022-10-29T08:19:33.303Z,21.73
2022-10-29T08:22:00.426Z,6.05
2022-10-29T08:24:27.572Z,7.88
2022-10-29T08:26:54.709Z,4.40
2022-10-29T08:29:21.880Z,5.05
2022-10-29T08:31:49.008Z,5.88
2022-10-29T08:34:16.133Z,2.97
2022-10-29T08:36:43.285Z,4.53
2022-10-29T08:39:10.437Z,5.00
2022-10-29T08:41:49.595Z,5.07
2022-10-29T08:44:35.319Z,5.57
2022-10-29T08:47:08.191Z,5.68
2022-10-29T08:49:38.343Z,5.90
2022-10-29T08:52:06.030Z,4.28
2022-10-29T08:54:34.322Z,4.38
2022-10-29T08:57:03.392Z,5.65
2022-10-29T08:59:30.589Z,8.32
2022-10-29T09:01:57.836Z,5.53
2022-10-29T09:04:35.128Z,6.80
2022-10-29T09:07:14.500Z,4.90
2022-10-29T09:10:00.239Z,5.18
2022-10-29T09:12:35.236Z,5.47
2022-10-29T09:15:11.725Z,4.07
2022-10-29T09:17:38.867Z,6.22
2022-10-29T09:20:05.989Z,5.18
2022-10-29T09:22:52.096Z,3.70
2022-10-29T09:25:19.205Z,6.90
2022-10-29T09:28:15.580Z,5.28
2022-10-29T09:30:55.281Z,5.47
2022-10-29T09:33:22.448Z,8.80
2022-10-29T09:35:53.072Z,5.28
2022-10-29T09:38:22.171Z,7.75
2022-10-29T09:40:49.424Z,6.18
2022-10-29T09:43:31.692Z,7.63
2022-10-29T09:46:02.298Z,5.63
2022-10-29T09:48:31.143Z,6.97
2022-10-29T09:51:16.757Z,8.98
2022-10-29T09:53:44.124Z,3.65
2022-10-29T09:56:11.278Z,4.22
2022-10-29T09:58:41.622Z,10.27
2022-10-29T10:01:08.830Z,6.88
2022-10-29T10:03:40.955Z,5.53
2022-10-29T10:06:11.171Z,3.10
2022-10-29T10:08:57.143Z,6.35
2022-10-29T10:11:24.545Z,5.88
2022-10-29T10:13:57.432Z,5.82
2022-10-29T10:16:25.011Z,6.15
2022-10-29T10:18:52.160Z,6.70
2022-10-29T10:21:29.335Z,6.93
2022-10-29T10:23:57.661Z,5.40
2022-10-29T10:26:39.269Z,5.75
2022-10-29T10:29:06.446Z,4.07
2022-10-29T10:31:33.578Z,4.10
2022-10-29T10:34:00.755Z,9.32
2022-10-29T10:36:28.302Z,5.88
2022-10-29T10:38:56.624Z,6.43
2022-10-29T10:41:31.325Z,8.35
2022-10-29T10:44:02.272Z,5.95
2022-10-29T10:46:31.059Z,8.93
2022-10-29T10:49:18.529Z,10.40
2022-10-29T10:51:46.124Z,5.55
2022-10-29T10:54:25.121Z,6.72
2022-10-29T10:56:52.941Z,5.13
2022-10-29T10:59:20.061Z,6.00
2022-10-29T11:01:48.001Z,5.78
2022-10-29T11:04:19.573Z,7.53
2022-10-29T11:06:48.991Z,5.75
2022-10-29T11:09:22.373Z,7.97
2022-10-29T11:11:59.142Z,5.35
2022-10-29T11:14:45.424Z,8.48
2022-10-29T11:17:29.247Z,7.72
2022-10-29T11:20:00.446Z,10.32
2022-10-29T11:22:33.731Z,4.80
2022-10-29T11:25:06.614Z,5.43
2022-10-29T11:27:33.813Z,6.72
2022-10-29T11:30:07.313Z,5.75
2022-10-29T11:32:39.944Z,10.57
2022-10-29T11:35:09.816Z,5.75
2022-10-29T11:37:46.057Z,8.85
2022-10-29T11:40:33.488Z,7.47
2022-10-29T11:43:08.401Z,9.25
2022-10-29T11:45:36.501Z,17.40
2022-10-29T11:48:21.669Z,23.33
2022-10-29T11:50:52.088Z,11.18
2022-10-29T11:53:26.632Z,19.77
2022-10-29T11:56:12.571Z,16.42
2022-10-29T11:58:41.723Z,39.28
2022-10-29T12:01:25.524Z,158.20
2022-10-29T12:04:11.497Z,99.60
2022-10-29T12:06:55.026Z,95.38
2022-10-29T12:09:22.188Z,54.42
2022-10-29T12:11:55.480Z,10.70
2022-10-29T12:14:22.636Z,92.63
2022-10-29T12:16:52.206Z,39.45
2022-10-29T12:19:27.585Z,12.60
2022-10-29T12:22:15.370Z,8.93
2022-10-29T12:24:54.669Z,11.60
2022-10-29T12:27:30.602Z,13.57
2022-10-29T12:30:00.895Z,39.55
2022-10-29T12:32:36.972Z,55.85
2022-10-29T12:35:13.004Z,19.08
2022-10-29T12:37:45.914Z,12.40
2022-10-29T12:40:21.882Z,7.82
2022-10-29T12:42:49.181Z,7.35
2022-10-29T12:45:36.921Z,7.75
2022-10-29T12:48:17.835Z,10.73
2022-10-29T12:50:48.463Z,8.38
2022-10-29T12:53:15.582Z,21.80
2022-10-29T12:55:42.708Z,16.02
2022-10-29T12:58:28.800Z,15.85
2022-10-29T13:00:55.994Z,8.00
2022-10-29T13:03:42.523Z,7.25
2022-10-29T13:06:28.699Z,11.80
2022-10-29T13:08:57.157Z,8.77
2022-10-29T13:11:24.624Z,8.30
2022-10-29T13:13:53.355Z,7.53
2022-10-29T13:16:21.641Z,7.13
2022-10-29T13:18:57.932Z,9.30
2022-10-29T13:21:43.533Z,9.32
2022-10-29T13:24:14.101Z,10.07
2022-10-29T13:27:16.756Z,11.50
2022-10-29T13:30:04.137Z,18.02
2022-10-29T13:32:35.115Z,23.13
2022-10-29T13:35:02.750Z,9.43
2022-10-29T13:37:38.915Z,14.98
2022-10-29T13:40:24.331Z,10.57
2022-10-29T13:42:55.394Z,12.48
2022-10-29T13:45:23.988Z,11.10
2022-10-29T13:47:51.165Z,9.20
2022-10-29T13:50:18.732Z,134.63
2022-10-29T13:52:46.008Z,55.78
2022-10-29T13:55:15.476Z,51.70
2022-10-29T13:57:52.034Z,90.40
2022-10-29T14:00:19.690Z,22.38
2022-10-29T14:02:49.915Z,17.20
2022-10-29T14:05:17.116Z,13.60
2022-10-29T14:08:03.041Z,22.20
2022-10-29T14:10:34.877Z,129.32
2022-10-29T14:13:06.745Z,44.72
2022-10-29T14:15:34.684Z,27.98
2022-10-29T14:18:18.734Z,16.48
2022-10-29T14:20:54.623Z,14.77
2022-10-29T14:23:21.818Z,8.65
2022-10-29T14:25:52.192Z,15.75
2022-10-29T14:28:20.744Z,19.92
2022-10-29T14:30:48.345Z,20.13
2022-10-29T14:33:19.220Z,23.27
2022-10-29T14:35:46.423Z,15.35
2022-10-29T14:38:13.657Z,23.85
2022-10-29T14:40:40.839Z,23.65
2022-10-29T14:43:07.981Z,46.63
2022-10-29T14:45:35.160Z,35.47
2022-10-29T14:48:03.385Z,30.33
2022-10-29T14:50:30.557Z,12.15
2022-10-29T14:52:59.187Z,10.88
2022-10-29T14:55:33.880Z,12.88
2022-10-29T14:58:05.763Z,12.23
2022-10-29T15:00:35.743Z,17.90
2022-10-29T15:03:03.545Z,15.77
2022-10-29T15:05:31.590Z,20.00
2022-10-29T15:08:29.160Z,17.58
2022-10-29T15:10:57.239Z,22.75
2022-10-29T15:13:24.424Z,30.75
2022-10-29T15:15:56.172Z,38.67
2022-10-29T15:18:23.361Z,35.08
2022-10-29T15:20:51.566Z,45.25
2022-10-29T15:23:38.225Z,37.10
2022-10-29T15:26:09.600Z,50.55
2022-10-29T15:28:40.732Z,44.97
2022-10-29T15:31:07.946Z,64.43
2022-10-29T15:33:36.047Z,60.28
2022-10-29T15:36:03.521Z,61.40
2022-10-29T15:38:30.689Z,46.67
2022-10-29T15:41:16.271Z,43.20
2022-10-29T15:43:57.033Z,62.13
2022-10-29T15:46:24.205Z,93.20
2022-10-29T15:48:51.350Z,94.93
2022-10-29T15:51:18.544Z,111.10
2022-10-29T15:53:45.705Z,169.70
2022-10-29T15:56:15.871Z,157.23
2022-10-29T15:58:43.011Z,192.25
2022-10-29T16:01:10.237Z,178.30
2022-10-29T16:03:39.337Z,251.70
2022-10-29T16:06:07.060Z,252.23
2022-10-29T16:08:44.139Z,298.77
2022-10-29T16:11:13.058Z,259.70
2022-10-29T16:13:40.221Z,238.73
2022-10-29T16:16:10.781Z,239.00
2022-10-29T16:18:38.070Z,219.38
2022-10-29T16:21:05.636Z,214.25
2022-10-29T16:23:33.473Z,207.52
2022-10-29T16:26:00.613Z,184.90
2022-10-29T16:28:27.772Z,150.77
2022-10-29T16:30:55.423Z,132.30
2022-10-29T16:33:22.570Z,152.00
2022-10-29T16:35:49.700Z,148.30
2022-10-29T16:38:18.606Z,155.25
2022-10-29T16:40:45.887Z,179.60
2022-10-29T16:43:13.032Z,218.85
2022-10-29T16:45:40.278Z,231.13
2022-10-29T16:48:07.480Z,153.02
2022-10-29T16:50:34.789Z,155.95
2022-10-29T16:53:02.004Z,164.18
2022-10-29T16:55:29.403Z,148.80
2022-10-29T16:57:57.102Z,154.57
2022-10-29T17:00:26.009Z,202.38
2022-10-29T17:02:53.442Z,137.43
2022-10-29T17:05:20.633Z,103.13
2022-10-29T17:07:47.820Z,106.85
2022-10-29T17:10:14.985Z,112.68
2022-10-29T17:12:42.118Z,96.35
2022-10-29T17:15:09.520Z,92.50
2022-10-29T17:17:37.074Z,100.82
2022-10-29T17:20:05.880Z,97.25
2022-10-29T17:22:33.054Z,79.07
2022-10-29T17:25:00.193Z,79.63
2022-10-29T17:27:27.338Z,94.50
2022-10-29T17:29:54.500Z,111.60
2022-10-29T17:32:21.696Z,86.30
2022-10-29T17:34:48.839Z,69.75
2022-10-29T17:37:16.021Z,87.40
2022-10-29T17:39:43.159Z,111.53
2022-10-29T17:42:10.352Z,108.28
2022-10-29T17:44:37.520Z,109.90
2022-10-29T17:47:04.668Z,120.75
2022-10-29T17:49:31.806Z,118.68
2022-10-29T17:51:58.995Z,133.30
2022-10-29T17:54:27.871Z,172.63
2022-10-29T17:56:55.074Z,168.27
2022-10-29T17:59:22.287Z,145.43
2022-10-29T18:01:49.599Z,128.45
2022-10-29T18:04:16.889Z,116.70
2022-10-29T18:06:44.053Z,119.55
2022-10-29T18:09:11.247Z,121.90
2022-10-29T18:11:38.386Z,145.95
2022-10-29T18:14:05.584Z,173.35
2022-10-29T18:16:32.725Z,191.43
2022-10-29T18:19:02.845Z,173.48
2022-10-29T18:21:30.949Z,179.30
2022-10-29T18:23:58.356Z,138.43
2022-10-29T18:26:35.340Z,153.48
2022-10-29T18:29:03.169Z,152.60
2022-10-29T18:31:30.876Z,126.68
2022-10-29T18:33:58.713Z,119.07
2022-10-29T18:36:25.924Z,106.32
2022-10-29T18:38:53.651Z,93.43
2022-10-29T18:41:20.849Z,87.03
2022-10-29T18:43:48.156Z,95.03
2022-10-29T18:46:15.424Z,103.70
2022-10-29T18:48:43.012Z,133.73
2022-10-29T18:51:11.028Z,137.35
2022-10-29T18:53:38.365Z,142.23
2022-10-29T18:56:09.126Z,138.32
2022-10-29T18:58:36.282Z,119.13
2022-10-29T19:01:13.565Z,114.28
2022-10-29T19:03:40.888Z,131.65
2022-10-29T19:06:12.002Z,142.93
2022-10-29T19:08:39.776Z,129.23
2022-10-29T19:11:08.023Z,103.32
2022-10-29T19:13:35.176Z,127.55
2022-10-29T19:16:06.390Z,114.95
2022-10-29T19:18:33.614Z,112.13
2022-10-29T19:21:13.598Z,130.50
2022-10-29T19:23:40.812Z,135.43
2022-10-29T19:26:08.771Z,123.38
2022-10-29T19:28:36.048Z,114.53
2022-10-29T19:31:03.965Z,120.40
2022-10-29T19:33:31.252Z,123.53
2022-10-29T19:35:58.527Z,140.13
2022-10-29T19:38:25.710Z,120.00
2022-10-29T19:40:53.140Z,111.00
2022-10-29T19:43:20.321Z,102.78
2022-10-29T19:45:47.454Z,89.53
2022-10-29T19:48:14.663Z,62.70
2022-10-29T19:50:41.900Z,58.67
2022-10-29T19:53:09.070Z,71.47
2022-10-29T19:55:39.537Z,88.53
2022-10-29T19:58:06.707Z,67.25
2022-10-29T20:00:33.849Z,77.53
2022-10-29T20:03:01.099Z,108.00
2022-10-29T20:05:28.428Z,116.35
2022-10-29T20:07:56.570Z,122.05
2022-10-29T20:10:24.225Z,149.30
2022-10-29T20:12:51.390Z,152.45
2022-10-29T20:15:18.584Z,122.95
2022-10-29T20:17:45.722Z,112.78
2022-10-29T20:20:16.817Z,118.53
2022-10-29T20:22:46.254Z,107.15
2022-10-29T20:25:15.197Z,103.28
2022-10-29T20:27:42.578Z,98.60
2022-10-29T20:30:10.671Z,88.28
2022-10-29T20:32:37.868Z,83.53
2022-10-29T20:35:05.120Z,92.53
2022-10-29T20:37:32.288Z,126.65
2022-10-29T20:39:59.708Z,138.88
2022-10-29T20:42:26.841Z,152.02
2022-10-29T20:44:53.970Z,124.30
2022-10-29T20:47:21.151Z,116.65
2022-10-29T20:49:48.307Z,120.07
2022-10-29T20:52:15.453Z,114.78
2022-10-29T20:54:42.636Z,102.90
2022-10-29T20:57:09.792Z,100.88
2022-10-29T20:59:36.938Z,94.57
2022-10-29T21:02:04.216Z,88.95
2022-10-29T21:04:31.429Z,80.05
2022-10-29T21:06:58.586Z,74.75
2022-10-29T21:09:25.783Z,79.95
2022-10-29T21:11:52.979Z,72.30
2022-10-29T21:14:20.142Z,59.83
2022-10-29T21:16:47.356Z,65.53
2022-10-29T21:19:14.493Z,66.82
2022-10-29T21:21:41.754Z,66.07
2022-10-29T21:24:08.942Z,75.38
2022-10-29T21:26:36.088Z,88.03
2022-10-29T21:29:03.277Z,78.47
2022-10-29T21:31:30.483Z,80.97
2022-10-29T21:33:57.636Z,75.53
2022-10-29T21:36:24.844Z,78.82
2022-10-29T21:38:52.028Z,78.13
2022-10-29T21:41:19.237Z,71.90
2022-10-29T21:43:46.448Z,62.85
2022-10-29T21:46:13.717Z,45.40
2022-10-29T21:48:40.881Z,54.20
2022-10-29T21:51:11.756Z,56.20
2022-10-29T21:53:38.971Z,63.05
2022-10-29T21:56:06.820Z,61.95
2022-10-29T21:58:34.179Z,59.42
2022-10-29T22:01:05.508Z,49.90
2022-10-29T22:03:35.961Z,52.28
2022-10-29T22:06:03.976Z,51.15
2022-10-29T22:08:31.157Z,45.83
2022-10-29T22:10:58.697Z,44.97
2022-10-29T22:13:25.842Z,41.65
2022-10-29T22:15:53.020Z,44.65
2022-10-29T22:18:20.740Z,42.65
2022-10-29T22:20:47.880Z,39.05
2022-10-29T22:25:43.097Z,43.45
2022-10-29T22:28:10.241Z,37.88
2022-10-29T22:30:37.408Z,30.52
2022-10-29T22:33:04.540Z,38.30
2022-10-29T22:35:31.695Z,42.22
2022-10-29T22:40:30.904Z,40.28
2022-10-29T22:42:58.425Z,42.35
2022-10-29T22:45:25.889Z,43.30
2022-10-29T22:47:53.020Z,48.78
2022-10-29T22:50:20.165Z,46.08
2022-10-29T22:52:47.326Z,47.55
2022-10-29T22:55:15.736Z,50.53
2022-10-29T22:57:42.864Z,49.42
2022-10-29T23:00:10.364Z,46.53
2022-10-29T23:02:37.538Z,40.15
2022-10-29T23:05:04.849Z,47.28
2022-10-29T23:10:04.152Z,52.70
2022-10-29T23:12:31.312Z,53.33
2022-10-29T23:14:58.457Z,48.45
2022-10-29T23:17:25.603Z,48.53
2022-10-29T23:19:56.128Z,42.03
2022-10-29T23:22:26.517Z,35.78
2022-10-29T23:24:54.853Z,35.72
2022-10-29T23:27:22.019Z,33.88
2022-10-29T23:29:49.159Z,34.20
2022-10-29T23:32:16.302Z,29.65
2022-10-29T23:34:43.465Z,34.78
2022-10-29T23:37:10.666Z,30.65
2022-10-29T23:39:37.832Z,27.73
2022-10-29T23:42:05.083Z,24.98
2022-10-29T23:44:32.389Z,24.77
2022-10-29T23:46:59.567Z,24.27
2022-10-29T23:49:26.718Z,26.88
2022-10-29T23:51:53.861Z,26.48
2022-10-29T23:54:20.996Z,19.90
2022-10-29T23:56:48.144Z,24.63
2022-10-29T23:59:15.278Z,20.63
